sensor_id;sensor_type;location;lat;lon;timestamp;P1;durP1;ratioP1;P2;durP2;ratioP2
43327;SDS011;28923;45.412;10.852;2024-03-02T00:01:56;4.05;;;1.40;;
43327;SDS011;28923;45.412;10.852;2024-03-02T00:04:22;1.92;;;1.20;;
43327;SDS011;28923;45.412;10.852;2024-03-02T00:06:47;1.52;;;1.10;;
43327;SDS011;28923;45.412;10.852;2024-03-02T00:09:13;2.30;;;1.40;;
43327;SDS011;28923;45.412;10.852;2024-03-02T00:11:40;2.10;;;1.17;;
43327;SDS011;28923;45.412;10.852;2024-03-02T00:14:05;1.70;;;1.15;;
43327;SDS011;28923;45.412;10.852;2024-03-02T00:16:31;1.60;;;1.10;;
43327;SDS011;28923;45.412;10.852;2024-03-02T00:19:01;1.20;;;0.93;;
43327;SDS011;28923;45.412;10.852;2024-03-02T00:21:26;2.30;;;1.20;;
43327;SDS011;28923;45.412;10.852;2024-03-02T00:23:52;1.80;;;1.02;;
43327;SDS011;28923;45.412;10.852;2024-03-02T00:26:18;2.33;;;0.90;;
43327;SDS011;28923;45.412;10.852;2024-03-02T00:28:44;1.98;;;1.05;;
43327;SDS011;28923;45.412;10.852;2024-03-02T00:31:13;1.20;;;1.10;;
43327;SDS011;28923;45.412;10.852;2024-03-02T00:33:42;2.00;;;0.90;;
43327;SDS011;28923;45.412;10.852;2024-03-02T00:36:08;1.85;;;1.00;;
43327;SDS011;28923;45.412;10.852;2024-03-02T00:38:34;1.38;;;1.10;;
43327;SDS011;28923;45.412;10.852;2024-03-02T00:41:00;1.13;;;1.00;;
43327;SDS011;28923;45.412;10.852;2024-03-02T00:43:47;1.45;;;1.10;;
43327;SDS011;28923;45.412;10.852;2024-03-02T00:46:13;1.42;;;1.00;;
43327;SDS011;28923;45.412;10.852;2024-03-02T00:48:42;1.38;;;0.90;;
43327;SDS011;28923;45.412;10.852;2024-03-02T00:51:10;0.90;;;0.90;;
43327;SDS011;28923;45.412;10.852;2024-03-02T00:53:35;1.05;;;0.90;;
43327;SDS011;28923;45.412;10.852;2024-03-02T00:56:02;0.90;;;0.80;;
43327;SDS011;28923;45.412;10.852;2024-03-02T00:58:27;1.30;;;1.05;;
43327;SDS011;28923;45.412;10.852;2024-03-02T01:00:53;1.25;;;0.80;;
43327;SDS011;28923;45.412;10.852;2024-03-02T01:03:18;1.55;;;0.88;;
43327;SDS011;28923;45.412;10.852;2024-03-02T01:05:44;2.65;;;1.00;;
43327;SDS011;28923;45.412;10.852;2024-03-02T01:08:10;1.73;;;0.82;;
43327;SDS011;28923;45.412;10.852;2024-03-02T01:10:35;0.95;;;0.95;;
43327;SDS011;28923;45.412;10.852;2024-03-02T01:13:01;2.10;;;1.25;;
43327;SDS011;28923;45.412;10.852;2024-03-02T01:15:26;2.03;;;1.05;;
43327;SDS011;28923;45.412;10.852;2024-03-02T01:17:52;1.30;;;0.77;;
43327;SDS011;28923;45.412;10.852;2024-03-02T01:20:17;1.23;;;0.80;;
43327;SDS011;28923;45.412;10.852;2024-03-02T01:22:43;3.05;;;0.95;;
43327;SDS011;28923;45.412;10.852;2024-03-02T01:25:08;1.40;;;0.73;;
43327;SDS011;28923;45.412;10.852;2024-03-02T01:27:34;2.13;;;1.27;;
43327;SDS011;28923;45.412;10.852;2024-03-02T01:29:59;1.63;;;0.90;;
43327;SDS011;28923;45.412;10.852;2024-03-02T01:32:25;1.58;;;0.82;;
43327;SDS011;28923;45.412;10.852;2024-03-02T01:34:50;0.93;;;0.80;;
43327;SDS011;28923;45.412;10.852;2024-03-02T01:37:16;1.50;;;0.80;;
43327;SDS011;28923;45.412;10.852;2024-03-02T01:39:41;1.48;;;0.90;;
43327;SDS011;28923;45.412;10.852;2024-03-02T01:42:07;1.60;;;0.82;;
43327;SDS011;28923;45.412;10.852;2024-03-02T01:44:32;1.15;;;0.80;;
43327;SDS011;28923;45.412;10.852;2024-03-02T01:46:58;1.63;;;0.80;;
43327;SDS011;28923;45.412;10.852;2024-03-02T01:49:23;1.38;;;0.77;;
43327;SDS011;28923;45.412;10.852;2024-03-02T01:51:49;1.48;;;0.65;;
43327;SDS011;28923;45.412;10.852;2024-03-02T01:54:14;1.23;;;0.70;;
43327;SDS011;28923;45.412;10.852;2024-03-02T01:56:39;0.98;;;0.80;;
43327;SDS011;28923;45.412;10.852;2024-03-02T01:59:05;1.27;;;0.80;;
43327;SDS011;28923;45.412;10.852;2024-03-02T02:01:31;1.38;;;0.60;;
43327;SDS011;28923;45.412;10.852;2024-03-02T02:03:56;1.70;;;0.75;;
43327;SDS011;28923;45.412;10.852;2024-03-02T02:06:21;1.00;;;0.70;;
43327;SDS011;28923;45.412;10.852;2024-03-02T02:08:47;1.13;;;0.80;;
43327;SDS011;28923;45.412;10.852;2024-03-02T02:11:15;1.65;;;0.80;;
43327;SDS011;28923;45.412;10.852;2024-03-02T02:13:41;2.13;;;0.70;;
43327;SDS011;28923;45.412;10.852;2024-03-02T02:16:07;1.08;;;0.63;;
43327;SDS011;28923;45.412;10.852;2024-03-02T02:18:32;1.13;;;0.80;;
43327;SDS011;28923;45.412;10.852;2024-03-02T02:20:58;1.17;;;0.80;;
43327;SDS011;28923;45.412;10.852;2024-03-02T02:23:23;1.10;;;0.80;;
43327;SDS011;28923;45.412;10.852;2024-03-02T02:25:48;1.23;;;0.60;;
43327;SDS011;28923;45.412;10.852;2024-03-02T02:28:14;1.00;;;0.68;;
43327;SDS011;28923;45.412;10.852;2024-03-02T02:30:39;1.17;;;0.65;;
43327;SDS011;28923;45.412;10.852;2024-03-02T02:33:04;0.70;;;0.70;;
43327;SDS011;28923;45.412;10.852;2024-03-02T02:35:30;1.10;;;0.75;;
43327;SDS011;28923;45.412;10.852;2024-03-02T02:37:55;1.13;;;0.68;;
43327;SDS011;28923;45.412;10.852;2024-03-02T02:40:22;0.80;;;0.55;;
43327;SDS011;28923;45.412;10.852;2024-03-02T02:42:47;0.95;;;0.60;;
43327;SDS011;28923;45.412;10.852;2024-03-02T02:45:14;1.40;;;0.73;;
43327;SDS011;28923;45.412;10.852;2024-03-02T02:47:40;1.15;;;0.50;;
43327;SDS011;28923;45.412;10.852;2024-03-02T02:50:06;1.55;;;0.90;;
43327;SDS011;28923;45.412;10.852;2024-03-02T02:52:32;0.40;;;0.40;;
43327;SDS011;28923;45.412;10.852;2024-03-02T02:54:58;1.10;;;0.50;;
43327;SDS011;28923;45.412;10.852;2024-03-02T02:57:24;1.08;;;0.75;;
43327;SDS011;28923;45.412;10.852;2024-03-02T02:59:49;0.88;;;0.60;;
43327;SDS011;28923;45.412;10.852;2024-03-02T03:02:15;0.90;;;0.63;;
43327;SDS011;28923;45.412;10.852;2024-03-02T03:04:40;0.60;;;0.50;;
43327;SDS011;28923;45.412;10.852;2024-03-02T03:07:05;0.63;;;0.57;;
43327;SDS011;28923;45.412;10.852;2024-03-02T03:09:31;0.80;;;0.63;;
43327;SDS011;28923;45.412;10.852;2024-03-02T03:11:56;1.10;;;0.70;;
43327;SDS011;28923;45.412;10.852;2024-03-02T03:14:22;1.38;;;0.75;;
43327;SDS011;28923;45.412;10.852;2024-03-02T03:16:47;0.45;;;0.40;;
43327;SDS011;28923;45.412;10.852;2024-03-02T03:19:13;0.68;;;0.50;;
43327;SDS011;28923;45.412;10.852;2024-03-02T03:21:39;1.00;;;0.50;;
43327;SDS011;28923;45.412;10.852;2024-03-02T03:24:04;0.60;;;0.50;;
43327;SDS011;28923;45.412;10.852;2024-03-02T03:26:29;1.38;;;0.38;;
43327;SDS011;28923;45.412;10.852;2024-03-02T03:28:55;0.55;;;0.50;;
43327;SDS011;28923;45.412;10.852;2024-03-02T03:31:20;0.68;;;0.60;;
43327;SDS011;28923;45.412;10.852;2024-03-02T03:33:45;1.20;;;0.50;;
43327;SDS011;28923;45.412;10.852;2024-03-02T03:36:11;0.50;;;0.50;;
43327;SDS011;28923;45.412;10.852;2024-03-02T03:38:37;1.58;;;0.68;;
43327;SDS011;28923;45.412;10.852;2024-03-02T03:41:02;1.10;;;0.50;;
43327;SDS011;28923;45.412;10.852;2024-03-02T03:43:27;0.57;;;0.40;;
43327;SDS011;28923;45.412;10.852;2024-03-02T03:45:53;0.98;;;0.60;;
43327;SDS011;28923;45.412;10.852;2024-03-02T03:48:18;0.85;;;0.50;;
43327;SDS011;28923;45.412;10.852;2024-03-02T03:50:44;0.88;;;0.40;;
43327;SDS011;28923;45.412;10.852;2024-03-02T03:53:09;0.60;;;0.45;;
43327;SDS011;28923;45.412;10.852;2024-03-02T03:55:34;1.52;;;0.52;;
43327;SDS011;28923;45.412;10.852;2024-03-02T03:58:00;0.80;;;0.57;;
43327;SDS011;28923;45.412;10.852;2024-03-02T04:00:25;2.75;;;0.50;;
43327;SDS011;28923;45.412;10.852;2024-03-02T04:02:51;1.40;;;0.50;;
43327;SDS011;28923;45.412;10.852;2024-03-02T04:05:16;0.75;;;0.50;;
43327;SDS011;28923;45.412;10.852;2024-03-02T04:07:42;0.70;;;0.45;;
43327;SDS011;28923;45.412;10.852;2024-03-02T04:10:08;1.70;;;0.70;;
43327;SDS011;28923;45.412;10.852;2024-03-02T04:12:34;1.15;;;0.77;;
43327;SDS011;28923;45.412;10.852;2024-03-02T04:15:01;0.85;;;0.50;;
43327;SDS011;28923;45.412;10.852;2024-03-02T04:17:27;0.98;;;0.60;;
43327;SDS011;28923;45.412;10.852;2024-03-02T04:19:52;0.75;;;0.43;;
43327;SDS011;28923;45.412;10.852;2024-03-02T04:22:18;0.82;;;0.50;;
43327;SDS011;28923;45.412;10.852;2024-03-02T04:24:43;0.50;;;0.50;;
43327;SDS011;28923;45.412;10.852;2024-03-02T04:27:08;0.50;;;0.40;;
43327;SDS011;28923;45.412;10.852;2024-03-02T04:29:34;0.77;;;0.50;;
43327;SDS011;28923;45.412;10.852;2024-03-02T04:31:59;1.23;;;0.60;;
43327;SDS011;28923;45.412;10.852;2024-03-02T04:34:24;1.38;;;0.60;;
43327;SDS011;28923;45.412;10.852;2024-03-02T04:36:50;1.25;;;0.38;;
43327;SDS011;28923;45.412;10.852;2024-03-02T04:39:16;1.02;;;0.57;;
43327;SDS011;28923;45.412;10.852;2024-03-02T04:41:41;0.82;;;0.40;;
43327;SDS011;28923;45.412;10.852;2024-03-02T04:44:06;0.50;;;0.50;;
43327;SDS011;28923;45.412;10.852;2024-03-02T04:46:33;0.50;;;0.50;;
43327;SDS011;28923;45.412;10.852;2024-03-02T04:48:58;1.00;;;0.55;;
43327;SDS011;28923;45.412;10.852;2024-03-02T04:51:23;0.80;;;0.50;;
43327;SDS011;28923;45.412;10.852;2024-03-02T04:53:49;0.50;;;0.40;;
43327;SDS011;28923;45.412;10.852;2024-03-02T04:56:14;1.20;;;0.50;;
43327;SDS011;28923;45.412;10.852;2024-03-02T04:59:02;0.80;;;0.43;;
43327;SDS011;28923;45.412;10.852;2024-03-02T05:01:28;0.80;;;0.40;;
43327;SDS011;28923;45.412;10.852;2024-03-02T05:03:53;0.82;;;0.50;;
43327;SDS011;28923;45.412;10.852;2024-03-02T05:06:19;1.05;;;0.60;;
43327;SDS011;28923;45.412;10.852;2024-03-02T05:08:44;0.85;;;0.50;;
43327;SDS011;28923;45.412;10.852;2024-03-02T05:11:10;1.00;;;0.60;;
43327;SDS011;28923;45.412;10.852;2024-03-02T05:14:07;1.92;;;0.73;;
43327;SDS011;28923;45.412;10.852;2024-03-02T05:16:35;1.17;;;0.70;;
43327;SDS011;28923;45.412;10.852;2024-03-02T05:19:03;0.90;;;0.60;;
43327;SDS011;28923;45.412;10.852;2024-03-02T05:21:28;0.68;;;0.50;;
43327;SDS011;28923;45.412;10.852;2024-03-02T05:23:54;1.25;;;0.50;;
43327;SDS011;28923;45.412;10.852;2024-03-02T05:26:19;1.65;;;0.40;;
43327;SDS011;28923;45.412;10.852;2024-03-02T05:28:44;0.75;;;0.40;;
43327;SDS011;28923;45.412;10.852;2024-03-02T05:31:10;1.23;;;0.50;;
43327;SDS011;28923;45.412;10.852;2024-03-02T05:33:37;0.75;;;0.35;;
43327;SDS011;28923;45.412;10.852;2024-03-02T05:36:03;0.98;;;0.57;;
43327;SDS011;28923;45.412;10.852;2024-03-02T05:38:29;0.65;;;0.50;;
43327;SDS011;28923;45.412;10.852;2024-03-02T05:40:55;0.90;;;0.60;;
43327;SDS011;28923;45.412;10.852;2024-03-02T05:43:20;1.90;;;0.50;;
43327;SDS011;28923;45.412;10.852;2024-03-02T05:45:45;2.38;;;0.50;;
43327;SDS011;28923;45.412;10.852;2024-03-02T05:48:11;2.20;;;0.50;;
43327;SDS011;28923;45.412;10.852;2024-03-02T05:50:36;4.78;;;0.70;;
43327;SDS011;28923;45.412;10.852;2024-03-02T05:53:02;2.63;;;0.60;;
43327;SDS011;28923;45.412;10.852;2024-03-02T05:55:27;4.10;;;0.60;;
43327;SDS011;28923;45.412;10.852;2024-03-02T05:57:53;1.10;;;0.50;;
43327;SDS011;28923;45.412;10.852;2024-03-02T06:00:37;4.15;;;0.75;;
43327;SDS011;28923;45.412;10.852;2024-03-02T06:03:03;6.15;;;1.25;;
43327;SDS011;28923;45.412;10.852;2024-03-02T06:05:29;9.73;;;0.90;;
43327;SDS011;28923;45.412;10.852;2024-03-02T06:07:54;2.75;;;1.08;;
43327;SDS011;28923;45.412;10.852;2024-03-02T06:10:19;4.10;;;0.93;;
43327;SDS011;28923;45.412;10.852;2024-03-02T06:12:45;4.28;;;0.82;;
43327;SDS011;28923;45.412;10.852;2024-03-02T06:15:11;4.45;;;1.25;;
43327;SDS011;28923;45.412;10.852;2024-03-02T06:17:36;12.50;;;1.25;;
43327;SDS011;28923;45.412;10.852;2024-03-02T06:20:02;5.05;;;1.00;;
43327;SDS011;28923;45.412;10.852;2024-03-02T06:22:27;5.55;;;0.60;;
43327;SDS011;28923;45.412;10.852;2024-03-02T06:24:53;2.88;;;1.05;;
43327;SDS011;28923;45.412;10.852;2024-03-02T06:27:18;5.65;;;1.35;;
43327;SDS011;28923;45.412;10.852;2024-03-02T06:29:44;6.68;;;1.40;;
43327;SDS011;28923;45.412;10.852;2024-03-02T06:32:09;4.00;;;0.77;;
43327;SDS011;28923;45.412;10.852;2024-03-02T06:34:34;10.50;;;1.20;;
43327;SDS011;28923;45.412;10.852;2024-03-02T06:37:00;2.30;;;0.73;;
43327;SDS011;28923;45.412;10.852;2024-03-02T06:39:25;8.32;;;0.77;;
43327;SDS011;28923;45.412;10.852;2024-03-02T06:41:51;1.48;;;0.90;;
43327;SDS011;28923;45.412;10.852;2024-03-02T06:44:16;4.03;;;1.00;;
43327;SDS011;28923;45.412;10.852;2024-03-02T06:46:42;4.30;;;0.90;;
43327;SDS011;28923;45.412;10.852;2024-03-02T06:49:07;2.42;;;0.60;;
43327;SDS011;28923;45.412;10.852;2024-03-02T06:51:33;3.70;;;0.82;;
43327;SDS011;28923;45.412;10.852;2024-03-02T06:53:59;4.68;;;0.80;;
43327;SDS011;28923;45.412;10.852;2024-03-02T06:56:24;2.58;;;0.65;;
43327;SDS011;28923;45.412;10.852;2024-03-02T06:58:50;2.55;;;0.57;;
43327;SDS011;28923;45.412;10.852;2024-03-02T07:01:15;3.45;;;0.88;;
43327;SDS011;28923;45.412;10.852;2024-03-02T07:03:41;2.70;;;0.60;;
43327;SDS011;28923;45.412;10.852;2024-03-02T07:06:06;1.45;;;0.55;;
43327;SDS011;28923;45.412;10.852;2024-03-02T07:08:31;6.25;;;0.80;;
43327;SDS011;28923;45.412;10.852;2024-03-02T07:10:57;2.38;;;0.40;;
43327;SDS011;28923;45.412;10.852;2024-03-02T07:13:22;3.75;;;0.88;;
43327;SDS011;28923;45.412;10.852;2024-03-02T07:15:48;2.97;;;0.77;;
43327;SDS011;28923;45.412;10.852;2024-03-02T07:18:16;3.35;;;0.80;;
43327;SDS011;28923;45.412;10.852;2024-03-02T07:20:41;2.58;;;0.60;;
43327;SDS011;28923;45.412;10.852;2024-03-02T07:23:07;2.67;;;0.60;;
43327;SDS011;28923;45.412;10.852;2024-03-02T07:25:32;5.55;;;1.15;;
43327;SDS011;28923;45.412;10.852;2024-03-02T07:27:58;4.03;;;0.60;;
43327;SDS011;28923;45.412;10.852;2024-03-02T07:30:23;1.67;;;0.75;;
43327;SDS011;28923;45.412;10.852;2024-03-02T07:32:50;3.55;;;0.80;;
43327;SDS011;28923;45.412;10.852;2024-03-02T07:35:15;1.77;;;0.70;;
43327;SDS011;28923;45.412;10.852;2024-03-02T07:37:41;2.70;;;0.60;;
43327;SDS011;28923;45.412;10.852;2024-03-02T07:40:06;3.17;;;0.70;;
43327;SDS011;28923;45.412;10.852;2024-03-02T07:42:34;2.25;;;0.77;;
43327;SDS011;28923;45.412;10.852;2024-03-02T07:45:00;2.63;;;0.50;;
43327;SDS011;28923;45.412;10.852;2024-03-02T07:47:25;4.72;;;0.95;;
43327;SDS011;28923;45.412;10.852;2024-03-02T07:49:50;2.83;;;0.70;;
43327;SDS011;28923;45.412;10.852;2024-03-02T07:52:16;1.38;;;0.68;;
43327;SDS011;28923;45.412;10.852;2024-03-02T07:54:41;0.93;;;0.57;;
43327;SDS011;28923;45.412;10.852;2024-03-02T07:57:06;1.17;;;0.65;;
43327;SDS011;28923;45.412;10.852;2024-03-02T07:59:32;4.28;;;0.70;;
43327;SDS011;28923;45.412;10.852;2024-03-02T08:01:57;3.92;;;0.75;;
43327;SDS011;28923;45.412;10.852;2024-03-02T08:04:23;1.30;;;0.75;;
43327;SDS011;28923;45.412;10.852;2024-03-02T08:06:48;1.52;;;0.60;;
43327;SDS011;28923;45.412;10.852;2024-03-02T08:09:14;1.10;;;0.60;;
43327;SDS011;28923;45.412;10.852;2024-03-02T08:11:39;1.30;;;0.50;;
43327;SDS011;28923;45.412;10.852;2024-03-02T08:14:04;1.65;;;0.68;;
43327;SDS011;28923;45.412;10.852;2024-03-02T08:16:30;1.17;;;0.57;;
43327;SDS011;28923;45.412;10.852;2024-03-02T08:18:56;2.85;;;0.82;;
43327;SDS011;28923;45.412;10.852;2024-03-02T08:21:23;1.02;;;0.45;;
43327;SDS011;28923;45.412;10.852;2024-03-02T08:23:48;1.55;;;0.60;;
43327;SDS011;28923;45.412;10.852;2024-03-02T08:26:14;2.22;;;0.88;;
43327;SDS011;28923;45.412;10.852;2024-03-02T08:28:39;0.50;;;0.40;;
43327;SDS011;28923;45.412;10.852;2024-03-02T08:31:07;1.02;;;0.60;;
43327;SDS011;28923;45.412;10.852;2024-03-02T08:33:33;1.75;;;0.70;;
43327;SDS011;28923;45.412;10.852;2024-03-02T08:35:58;2.22;;;0.80;;
43327;SDS011;28923;45.412;10.852;2024-03-02T08:38:24;2.40;;;0.60;;
43327;SDS011;28923;45.412;10.852;2024-03-02T08:40:49;0.80;;;0.50;;
43327;SDS011;28923;45.412;10.852;2024-03-02T08:43:15;1.13;;;0.50;;
43327;SDS011;28923;45.412;10.852;2024-03-02T08:45:40;0.68;;;0.40;;
43327;SDS011;28923;45.412;10.852;2024-03-02T08:48:09;2.45;;;0.43;;
43327;SDS011;28923;45.412;10.852;2024-03-02T08:50:35;1.10;;;0.60;;
43327;SDS011;28923;45.412;10.852;2024-03-02T08:53:00;2.03;;;0.60;;
43327;SDS011;28923;45.412;10.852;2024-03-02T08:55:26;2.95;;;0.65;;
43327;SDS011;28923;45.412;10.852;2024-03-02T08:57:51;1.65;;;0.80;;
43327;SDS011;28923;45.412;10.852;2024-03-02T09:00:17;1.83;;;0.90;;
43327;SDS011;28923;45.412;10.852;2024-03-02T09:02:45;2.35;;;0.80;;
43327;SDS011;28923;45.412;10.852;2024-03-02T09:05:11;0.73;;;0.55;;
43327;SDS011;28923;45.412;10.852;2024-03-02T09:07:37;1.30;;;0.80;;
43327;SDS011;28923;45.412;10.852;2024-03-02T09:10:04;1.60;;;0.68;;
43327;SDS011;28923;45.412;10.852;2024-03-02T09:12:30;1.95;;;0.70;;
43327;SDS011;28923;45.412;10.852;2024-03-02T09:14:55;1.23;;;0.80;;
43327;SDS011;28923;45.412;10.852;2024-03-02T09:17:21;1.05;;;0.73;;
43327;SDS011;28923;45.412;10.852;2024-03-02T09:19:46;2.80;;;0.73;;
43327;SDS011;28923;45.412;10.852;2024-03-02T09:22:12;1.05;;;0.80;;
43327;SDS011;28923;45.412;10.852;2024-03-02T09:24:38;1.88;;;0.60;;
43327;SDS011;28923;45.412;10.852;2024-03-02T09:27:04;0.73;;;0.63;;
43327;SDS011;28923;45.412;10.852;2024-03-02T09:29:29;0.85;;;0.57;;
43327;SDS011;28923;45.412;10.852;2024-03-02T09:31:55;0.60;;;0.52;;
43327;SDS011;28923;45.412;10.852;2024-03-02T09:34:20;1.70;;;0.90;;
43327;SDS011;28923;45.412;10.852;2024-03-02T09:36:46;1.23;;;0.68;;
43327;SDS011;28923;45.412;10.852;2024-03-02T09:39:11;1.00;;;0.57;;
43327;SDS011;28923;45.412;10.852;2024-03-02T09:41:37;0.90;;;0.68;;
43327;SDS011;28923;45.412;10.852;2024-03-02T09:44:02;0.98;;;0.50;;
43327;SDS011;28923;45.412;10.852;2024-03-02T09:46:28;0.60;;;0.55;;
43327;SDS011;28923;45.412;10.852;2024-03-02T09:48:53;0.90;;;0.70;;
43327;SDS011;28923;45.412;10.852;2024-03-02T09:51:19;2.15;;;0.60;;
43327;SDS011;28923;45.412;10.852;2024-03-02T09:53:44;0.82;;;0.70;;
43327;SDS011;28923;45.412;10.852;2024-03-02T09:56:10;1.10;;;0.45;;
43327;SDS011;28923;45.412;10.852;2024-03-02T09:58:36;0.60;;;0.38;;
43327;SDS011;28923;45.412;10.852;2024-03-02T10:01:01;1.30;;;0.52;;
43327;SDS011;28923;45.412;10.852;2024-03-02T10:03:27;0.70;;;0.52;;
43327;SDS011;28923;45.412;10.852;2024-03-02T10:05:55;0.93;;;0.47;;
43327;SDS011;28923;45.412;10.852;2024-03-02T10:08:20;0.80;;;0.60;;
43327;SDS011;28923;45.412;10.852;2024-03-02T10:10:46;0.43;;;0.40;;
43327;SDS011;28923;45.412;10.852;2024-03-02T10:13:12;0.57;;;0.50;;
43327;SDS011;28923;45.412;10.852;2024-03-02T10:15:38;1.05;;;0.73;;
43327;SDS011;28923;45.412;10.852;2024-03-02T10:18:08;1.13;;;0.65;;
43327;SDS011;28923;45.412;10.852;2024-03-02T10:20:33;1.90;;;1.17;;
43327;SDS011;28923;45.412;10.852;2024-03-02T10:23:12;0.55;;;0.40;;
43327;SDS011;28923;45.412;10.852;2024-03-02T10:25:38;1.10;;;0.60;;
43327;SDS011;28923;45.412;10.852;2024-03-02T10:28:04;1.42;;;0.63;;
43327;SDS011;28923;45.412;10.852;2024-03-02T10:30:32;0.73;;;0.57;;
43327;SDS011;28923;45.412;10.852;2024-03-02T10:32:58;0.50;;;0.43;;
43327;SDS011;28923;45.412;10.852;2024-03-02T10:35:24;0.80;;;0.60;;
43327;SDS011;28923;45.412;10.852;2024-03-02T10:37:51;1.63;;;0.57;;
43327;SDS011;28923;45.412;10.852;2024-03-02T10:40:18;2.58;;;0.63;;
43327;SDS011;28923;45.412;10.852;2024-03-02T10:42:46;1.73;;;0.52;;
43327;SDS011;28923;45.412;10.852;2024-03-02T10:45:13;0.90;;;0.45;;
43327;SDS011;28923;45.412;10.852;2024-03-02T10:47:40;1.17;;;0.60;;
43327;SDS011;28923;45.412;10.852;2024-03-02T10:50:06;1.25;;;0.47;;
43327;SDS011;28923;45.412;10.852;2024-03-02T10:52:36;3.33;;;0.85;;
43327;SDS011;28923;45.412;10.852;2024-03-02T10:55:02;4.13;;;0.98;;
43327;SDS011;28923;45.412;10.852;2024-03-02T10:57:37;1.10;;;0.65;;
43327;SDS011;28923;45.412;10.852;2024-03-02T11:00:04;2.60;;;0.45;;
43327;SDS011;28923;45.412;10.852;2024-03-02T11:02:30;3.65;;;0.60;;
43327;SDS011;28923;45.412;10.852;2024-03-02T11:04:57;0.75;;;0.73;;
43327;SDS011;28923;45.412;10.852;2024-03-02T11:07:25;2.65;;;0.57;;
43327;SDS011;28923;45.412;10.852;2024-03-02T11:09:54;4.15;;;0.90;;
43327;SDS011;28923;45.412;10.852;2024-03-02T11:12:39;1.02;;;0.60;;
43327;SDS011;28923;45.412;10.852;2024-03-02T11:15:11;2.70;;;0.73;;
43327;SDS011;28923;45.412;10.852;2024-03-02T11:17:42;1.30;;;0.57;;
43327;SDS011;28923;45.412;10.852;2024-03-02T11:20:08;1.35;;;0.70;;
43327;SDS011;28923;45.412;10.852;2024-03-02T11:22:34;2.58;;;0.60;;
43327;SDS011;28923;45.412;10.852;2024-03-02T11:25:00;5.00;;;0.82;;
43327;SDS011;28923;45.412;10.852;2024-03-02T11:30:15;1.42;;;0.70;;
43327;SDS011;28923;45.412;10.852;2024-03-02T11:32:55;3.15;;;0.88;;
43327;SDS011;28923;45.412;10.852;2024-03-02T11:35:21;3.05;;;0.70;;
43327;SDS011;28923;45.412;10.852;2024-03-02T11:37:46;1.38;;;0.70;;
43327;SDS011;28923;45.412;10.852;2024-03-02T11:40:12;4.93;;;0.80;;
43327;SDS011;28923;45.412;10.852;2024-03-02T11:42:38;2.60;;;0.60;;
43327;SDS011;28923;45.412;10.852;2024-03-02T11:45:03;0.70;;;0.50;;
43327;SDS011;28923;45.412;10.852;2024-03-02T11:47:31;3.15;;;0.60;;
43327;SDS011;28923;45.412;10.852;2024-03-02T11:49:56;1.85;;;0.60;;
43327;SDS011;28923;45.412;10.852;2024-03-02T11:52:21;2.58;;;0.80;;
43327;SDS011;28923;45.412;10.852;2024-03-02T11:54:47;1.17;;;0.57;;
43327;SDS011;28923;45.412;10.852;2024-03-02T11:57:17;1.15;;;0.77;;
43327;SDS011;28923;45.412;10.852;2024-03-02T11:59:43;1.50;;;0.82;;
43327;SDS011;28923;45.412;10.852;2024-03-02T12:02:30;2.22;;;0.60;;
43327;SDS011;28923;45.412;10.852;2024-03-02T12:04:54;2.40;;;0.70;;
43327;SDS011;28923;45.412;10.852;2024-03-02T12:07:21;1.70;;;0.68;;
43327;SDS011;28923;45.412;10.852;2024-03-02T12:09:47;2.53;;;0.60;;
43327;SDS011;28923;45.412;10.852;2024-03-02T12:12:13;3.20;;;0.73;;
43327;SDS011;28923;45.412;10.852;2024-03-02T12:14:49;1.60;;;0.82;;
43327;SDS011;28923;45.412;10.852;2024-03-02T12:17:15;0.90;;;0.70;;
43327;SDS011;28923;45.412;10.852;2024-03-02T12:19:40;2.78;;;0.70;;
43327;SDS011;28923;45.412;10.852;2024-03-02T12:22:05;2.33;;;0.75;;
43327;SDS011;28923;45.412;10.852;2024-03-02T12:24:31;1.15;;;0.68;;
43327;SDS011;28923;45.412;10.852;2024-03-02T12:26:56;0.95;;;0.50;;
43327;SDS011;28923;45.412;10.852;2024-03-02T12:29:22;2.28;;;0.70;;
43327;SDS011;28923;45.412;10.852;2024-03-02T12:31:49;1.50;;;0.88;;
43327;SDS011;28923;45.412;10.852;2024-03-02T12:34:15;1.05;;;0.60;;
43327;SDS011;28923;45.412;10.852;2024-03-02T12:36:40;1.02;;;0.60;;
43327;SDS011;28923;45.412;10.852;2024-03-02T12:39:09;1.30;;;0.80;;
43327;SDS011;28923;45.412;10.852;2024-03-02T12:41:38;2.42;;;1.00;;
43327;SDS011;28923;45.412;10.852;2024-03-02T12:44:04;3.70;;;0.88;;
43327;SDS011;28923;45.412;10.852;2024-03-02T12:46:30;2.53;;;0.70;;
43327;SDS011;28923;45.412;10.852;2024-03-02T12:48:55;1.42;;;0.70;;
43327;SDS011;28923;45.412;10.852;2024-03-02T12:51:21;2.38;;;0.82;;
43327;SDS011;28923;45.412;10.852;2024-03-02T12:53:52;2.10;;;0.80;;
43327;SDS011;28923;45.412;10.852;2024-03-02T12:56:18;2.40;;;0.75;;
43327;SDS011;28923;45.412;10.852;2024-03-02T12:58:43;0.88;;;0.68;;
43327;SDS011;28923;45.412;10.852;2024-03-02T13:01:09;1.42;;;0.70;;
43327;SDS011;28923;45.412;10.852;2024-03-02T13:03:36;1.10;;;0.90;;
43327;SDS011;28923;45.412;10.852;2024-03-02T13:06:02;2.80;;;1.05;;
43327;SDS011;28923;45.412;10.852;2024-03-02T13:08:27;2.50;;;1.13;;
43327;SDS011;28923;45.412;10.852;2024-03-02T13:10:53;4.20;;;0.90;;
43327;SDS011;28923;45.412;10.852;2024-03-02T13:13:19;2.17;;;0.73;;
43327;SDS011;28923;45.412;10.852;2024-03-02T13:15:44;1.65;;;0.80;;
43327;SDS011;28923;45.412;10.852;2024-03-02T13:18:10;2.92;;;0.98;;
43327;SDS011;28923;45.412;10.852;2024-03-02T13:20:36;2.42;;;0.95;;
43327;SDS011;28923;45.412;10.852;2024-03-02T13:23:02;1.85;;;0.77;;
43327;SDS011;28923;45.412;10.852;2024-03-02T13:25:27;1.23;;;0.75;;
43327;SDS011;28923;45.412;10.852;2024-03-02T13:27:53;2.20;;;0.80;;
43327;SDS011;28923;45.412;10.852;2024-03-02T13:30:18;2.42;;;0.85;;
43327;SDS011;28923;45.412;10.852;2024-03-02T13:32:44;1.27;;;0.63;;
43327;SDS011;28923;45.412;10.852;2024-03-02T13:35:09;3.35;;;1.10;;
43327;SDS011;28923;45.412;10.852;2024-03-02T13:37:36;2.65;;;1.00;;
43327;SDS011;28923;45.412;10.852;2024-03-02T13:40:01;1.25;;;0.82;;
43327;SDS011;28923;45.412;10.852;2024-03-02T13:42:29;1.38;;;0.90;;
43327;SDS011;28923;45.412;10.852;2024-03-02T13:44:54;1.95;;;0.77;;
43327;SDS011;28923;45.412;10.852;2024-03-02T13:47:20;1.75;;;0.70;;
43327;SDS011;28923;45.412;10.852;2024-03-02T13:49:46;3.08;;;0.93;;
43327;SDS011;28923;45.412;10.852;2024-03-02T13:52:14;5.07;;;1.02;;
43327;SDS011;28923;45.412;10.852;2024-03-02T13:54:40;10.60;;;1.48;;
43327;SDS011;28923;45.412;10.852;2024-03-02T13:57:06;12.48;;;1.70;;
43327;SDS011;28923;45.412;10.852;2024-03-02T13:59:32;5.50;;;1.25;;
43327;SDS011;28923;45.412;10.852;2024-03-02T14:01:57;4.38;;;1.10;;
43327;SDS011;28923;45.412;10.852;2024-03-02T14:04:23;2.25;;;0.73;;
43327;SDS011;28923;45.412;10.852;2024-03-02T14:06:48;4.00;;;1.13;;
43327;SDS011;28923;45.412;10.852;2024-03-02T14:09:14;6.13;;;0.70;;
43327;SDS011;28923;45.412;10.852;2024-03-02T14:11:39;3.30;;;0.88;;
43327;SDS011;28923;45.412;10.852;2024-03-02T14:14:05;3.85;;;0.90;;
43327;SDS011;28923;45.412;10.852;2024-03-02T14:16:30;8.05;;;1.17;;
43327;SDS011;28923;45.412;10.852;2024-03-02T14:18:56;1.30;;;1.02;;
43327;SDS011;28923;45.412;10.852;2024-03-02T14:21:21;4.13;;;0.77;;
43327;SDS011;28923;45.412;10.852;2024-03-02T14:23:46;3.47;;;1.02;;
43327;SDS011;28923;45.412;10.852;2024-03-02T14:26:12;2.10;;;0.70;;
43327;SDS011;28923;45.412;10.852;2024-03-02T14:28:37;2.90;;;0.77;;
43327;SDS011;28923;45.412;10.852;2024-03-02T14:31:03;2.65;;;0.95;;